createdAt,value
2022-11-15T00:00:09.499Z,0.00
2022-11-15T00:01:09.686Z,0.00
2022-11-15T00:02:09.890Z,0.00
2022-11-15T00:03:10.060Z,0.00
2022-11-15T00:04:10.267Z,0.00
2022-11-15T00:05:10.456Z,0.00
2022-11-15T00:06:10.640Z,0.00
2022-11-15T00:07:17.988Z,0.00
2022-11-15T00:08:12.009Z,0.00
2022-11-15T00:09:11.097Z,0.00
2022-11-15T00:10:11.285Z,0.00
2022-11-15T00:11:11.465Z,0.00
2022-11-15T00:12:11.649Z,0.00
2022-11-15T00:13:11.851Z,0.00
2022-11-15T00:14:12.028Z,0.00
2022-11-15T00:15:12.210Z,0.00
2022-11-15T00:16:12.399Z,0.00
2022-11-15T00:17:12.613Z,0.00
2022-11-15T00:18:12.791Z,0.00
2022-11-15T00:19:12.986Z,0.00
2022-11-15T00:20:13.175Z,0.00
2022-11-15T00:21:13.362Z,0.00
2022-11-15T00:22:13.572Z,0.00
2022-11-15T00:23:13.763Z,0.00
2022-11-15T00:24:13.956Z,0.00
2022-11-15T00:25:14.145Z,0.00
2022-11-15T00:26:14.325Z,0.00
2022-11-15T00:27:14.527Z,0.00
2022-11-15T00:28:14.730Z,0.00
2022-11-15T00:29:14.932Z,0.00
2022-11-15T00:30:15.116Z,0.00
2022-11-15T00:31:15.346Z,0.00
2022-11-15T00:32:15.446Z,0.00
2022-11-15T00:33:15.649Z,0.00
2022-11-15T00:34:15.842Z,0.00
2022-11-15T00:35:16.033Z,0.00
2022-11-15T00:36:16.228Z,0.00
2022-11-15T00:37:16.436Z,0.00
2022-11-15T00:38:16.633Z,0.00
2022-11-15T00:39:16.813Z,0.00
2022-11-15T00:40:17.019Z,0.00
2022-11-15T00:41:17.195Z,0.00
2022-11-15T00:42:17.400Z,0.00
2022-11-15T00:43:17.590Z,0.00
2022-11-15T00:44:17.766Z,0.00
2022-11-15T00:45:17.969Z,0.00
2022-11-15T00:46:18.159Z,0.00
2022-11-15T00:47:18.370Z,0.00
2022-11-15T00:48:18.559Z,0.00
2022-11-15T00:49:18.754Z,0.00
2022-11-15T00:50:18.950Z,0.00
2022-11-15T00:51:19.129Z,0.00
2022-11-15T00:52:19.334Z,0.00
2022-11-15T00:53:19.533Z,0.00
2022-11-15T00:54:19.731Z,0.00
2022-11-15T00:55:19.939Z,0.00
2022-11-15T00:56:20.128Z,0.00
2022-11-15T00:57:20.331Z,0.00
2022-11-15T00:58:20.531Z,0.00
2022-11-15T00:59:20.726Z,0.00
2022-11-15T01:00:20.920Z,0.00
2022-11-15T01:01:21.167Z,0.00
2022-11-15T01:02:21.225Z,0.00
2022-11-15T01:03:21.421Z,0.00
2022-11-15T01:04:21.605Z,0.00
2022-11-15T01:05:21.816Z,0.00
2022-11-15T01:06:22.004Z,0.00
2022-11-15T01:07:22.234Z,0.00
2022-11-15T01:08:22.337Z,0.00
2022-11-15T01:09:22.541Z,0.00
2022-11-15T01:10:22.748Z,0.00
2022-11-15T01:11:22.933Z,0.00
2022-11-15T01:12:23.128Z,0.00
2022-11-15T01:13:23.330Z,0.00
2022-11-15T01:14:25.530Z,0.00
2022-11-15T01:15:23.663Z,0.00
2022-11-15T01:16:23.752Z,0.00
2022-11-15T01:17:23.936Z,0.00
2022-11-15T01:18:24.147Z,0.00
2022-11-15T01:19:24.346Z,0.00
2022-11-15T01:20:24.546Z,0.00
2022-11-15T01:21:24.639Z,0.00
2022-11-15T01:22:24.841Z,0.00
2022-11-15T01:23:25.048Z,0.00
2022-11-15T01:24:25.259Z,0.00
2022-11-15T01:25:25.510Z,0.00
2022-11-15T01:26:25.592Z,0.00
2022-11-15T01:27:25.808Z,0.00
2022-11-15T01:28:25.910Z,0.00
2022-11-15T01:29:26.117Z,0.00
2022-11-15T01:30:26.336Z,0.00
2022-11-15T01:31:26.532Z,0.00
2022-11-15T01:32:26.728Z,0.00
2022-11-15T01:33:26.927Z,0.00
2022-11-15T01:34:27.122Z,0.00
2022-11-15T01:35:27.336Z,0.00
2022-11-15T01:36:27.414Z,0.00
2022-11-15T01:37:27.608Z,0.00
2022-11-15T01:38:27.807Z,0.00
2022-11-15T01:39:27.996Z,0.00
2022-11-15T01:40:28.224Z,0.00
2022-11-15T01:41:28.306Z,0.00
2022-11-15T01:42:28.532Z,0.00
2022-11-15T01:43:28.753Z,0.00
2022-11-15T01:44:28.773Z,0.00
2022-11-15T01:45:28.994Z,0.00
2022-11-15T01:46:29.184Z,0.00
2022-11-15T01:47:29.390Z,0.00
2022-11-15T01:48:29.580Z,0.00
2022-11-15T01:49:29.801Z,0.00
2022-11-15T01:50:30.009Z,0.00
2022-11-15T01:51:30.216Z,0.00
2022-11-15T01:52:30.399Z,0.00
2022-11-15T01:53:30.906Z,0.00
2022-11-15T01:54:30.808Z,0.00
2022-11-15T01:55:31.031Z,0.00
2022-11-15T01:56:31.112Z,0.00
2022-11-15T01:57:31.311Z,0.00
2022-11-15T01:58:31.507Z,0.00
2022-11-15T01:59:31.701Z,0.00
2022-11-15T02:00:32.044Z,0.00
2022-11-15T02:01:32.047Z,0.00
2022-11-15T02:02:32.247Z,0.00
2022-11-15T02:03:32.776Z,0.00
2022-11-15T02:04:32.657Z,0.00
2022-11-15T02:05:32.872Z,0.00
2022-11-15T02:06:33.063Z,0.00
2022-11-15T02:07:33.315Z,0.00
2022-11-15T02:08:33.389Z,0.00
2022-11-15T02:09:33.603Z,0.00
2022-11-15T02:10:33.818Z,0.00
2022-11-15T02:11:34.007Z,0.00
2022-11-15T02:12:34.195Z,0.00
2022-11-15T02:13:34.468Z,0.00
2022-11-15T02:14:34.550Z,0.00
2022-11-15T02:15:34.767Z,0.00
2022-11-15T02:16:34.960Z,0.00
2022-11-15T02:17:35.160Z,0.00
2022-11-15T02:18:35.361Z,0.00
2022-11-15T02:19:35.553Z,0.00
2022-11-15T02:20:35.763Z,0.00
2022-11-15T02:21:35.960Z,0.00
2022-11-15T02:22:36.066Z,0.00
2022-11-15T02:23:36.280Z,0.00
2022-11-15T02:24:36.472Z,0.00
2022-11-15T02:25:36.729Z,0.00
2022-11-15T02:26:36.816Z,0.00
2022-11-15T02:27:37.010Z,0.00
2022-11-15T02:28:37.213Z,0.00
2022-11-15T02:29:37.410Z,0.00
2022-11-15T02:30:37.625Z,0.00
2022-11-15T02:31:37.813Z,0.00
2022-11-15T02:32:38.009Z,0.00
2022-11-15T02:33:38.201Z,0.00
2022-11-15T02:34:38.399Z,0.00
2022-11-15T02:35:38.605Z,0.00
2022-11-15T02:36:38.796Z,0.00
2022-11-15T02:37:39.003Z,0.00
2022-11-15T02:38:39.203Z,0.00
2022-11-15T02:39:39.405Z,0.00
2022-11-15T02:40:39.625Z,0.00
2022-11-15T02:41:39.823Z,0.00
2022-11-15T02:42:40.024Z,0.00
2022-11-15T02:43:40.215Z,0.00
2022-11-15T02:44:40.405Z,0.00
2022-11-15T02:45:40.636Z,0.00
2022-11-15T02:46:40.824Z,0.00
2022-11-15T02:47:41.016Z,0.00
2022-11-15T02:48:41.215Z,0.00
2022-11-15T02:49:41.405Z,0.00
2022-11-15T02:50:41.625Z,0.00
2022-11-15T02:51:41.815Z,0.00
2022-11-15T02:52:42.014Z,0.00
2022-11-15T02:53:42.236Z,0.00
2022-11-15T02:54:42.413Z,0.00
2022-11-15T02:55:42.626Z,0.00
2022-11-15T02:56:42.826Z,0.00
2022-11-15T02:57:43.033Z,0.00
2022-11-15T02:58:43.215Z,0.00
2022-11-15T02:59:43.411Z,0.00
2022-11-15T03:00:43.721Z,0.00
2022-11-15T03:01:43.807Z,0.00
2022-11-15T03:02:44.022Z,0.00
2022-11-15T03:03:44.227Z,0.00
2022-11-15T03:04:44.428Z,0.00
2022-11-15T03:05:45.622Z,0.00
2022-11-15T03:06:44.866Z,0.00
2022-11-15T03:08:39.168Z,0.00
2022-11-15T03:09:39.378Z,0.00
2022-11-15T03:10:39.585Z,0.00
2022-11-15T03:11:39.805Z,0.00
2022-11-15T03:12:40.010Z,0.00
2022-11-15T03:13:40.225Z,0.00
2022-11-15T03:14:40.444Z,0.00
2022-11-15T03:15:40.548Z,0.00
2022-11-15T03:16:40.752Z,0.00
2022-11-15T03:17:40.948Z,0.00
2022-11-15T03:18:41.146Z,0.00
2022-11-15T03:19:41.357Z,0.00
2022-11-15T03:20:41.543Z,0.00
2022-11-15T03:21:41.789Z,0.00
2022-11-15T03:22:41.888Z,0.00
2022-11-15T03:23:42.109Z,0.00
2022-11-15T03:24:42.340Z,0.00
2022-11-15T03:25:42.429Z,0.00
2022-11-15T03:26:42.650Z,0.00
2022-11-15T03:27:42.752Z,0.00
2022-11-15T03:28:42.938Z,0.00
2022-11-15T03:29:43.143Z,0.00
2022-11-15T03:30:43.370Z,0.00
2022-11-15T03:31:49.631Z,0.00
2022-11-15T03:32:44.761Z,0.00
2022-11-15T03:33:43.984Z,0.00
2022-11-15T03:34:44.197Z,0.00
2022-11-15T03:35:44.303Z,0.00
2022-11-15T03:36:44.557Z,0.00
2022-11-15T03:37:44.826Z,0.00
2022-11-15T03:38:44.823Z,0.00
2022-11-15T03:39:45.037Z,0.00
2022-11-15T03:40:45.266Z,0.00
2022-11-15T03:41:45.502Z,0.00
2022-11-15T03:42:45.641Z,0.00
2022-11-15T03:43:45.749Z,0.00
2022-11-15T03:44:45.849Z,0.00
2022-11-15T03:45:46.060Z,0.00
2022-11-15T03:46:46.285Z,0.00
2022-11-15T03:47:46.394Z,0.00
2022-11-15T03:48:46.534Z,0.00
2022-11-15T03:49:46.647Z,0.00
2022-11-15T03:50:46.747Z,0.00
2022-11-15T03:51:46.868Z,0.00
2022-11-15T03:52:46.968Z,0.00
2022-11-15T03:53:47.172Z,0.00
2022-11-15T03:54:47.408Z,0.00
2022-11-15T03:55:47.515Z,0.00
2022-11-15T03:56:47.763Z,0.00
2022-11-15T03:57:47.907Z,0.00
2022-11-15T03:58:48.129Z,0.00
2022-11-15T03:59:48.236Z,0.00
2022-11-15T04:00:48.400Z,0.00
2022-11-15T04:01:48.525Z,0.00
2022-11-15T04:02:48.633Z,0.00
2022-11-15T04:03:48.744Z,0.00
2022-11-15T04:04:48.845Z,0.00
2022-11-15T04:05:48.984Z,0.00
2022-11-15T04:06:49.134Z,0.00
2022-11-15T04:07:49.267Z,0.00
2022-11-15T04:08:49.398Z,0.00
2022-11-15T04:09:49.624Z,0.00
2022-11-15T04:10:49.726Z,0.00
2022-11-15T04:11:49.965Z,0.00
2022-11-15T04:12:50.078Z,0.00
2022-11-15T04:13:50.180Z,0.00
2022-11-15T04:14:50.396Z,0.00
2022-11-15T04:15:50.613Z,0.00
2022-11-15T04:16:50.840Z,0.00
2022-11-15T04:17:50.940Z,0.00
2022-11-15T04:18:51.049Z,0.00
2022-11-15T04:19:51.393Z,0.00
2022-11-15T04:20:51.396Z,0.00
2022-11-15T04:21:51.634Z,0.00
2022-11-15T04:22:51.734Z,0.00
2022-11-15T04:23:51.974Z,0.00
2022-11-15T04:24:52.085Z,0.00
2022-11-15T04:25:52.222Z,0.00
2022-11-15T04:26:52.341Z,0.00
2022-11-15T04:27:52.442Z,0.00
2022-11-15T04:28:52.548Z,0.00
2022-11-15T04:29:52.764Z,0.00
2022-11-15T04:30:52.867Z,0.00
2022-11-15T04:31:53.117Z,0.00
2022-11-15T04:32:53.221Z,0.00
2022-11-15T04:33:53.521Z,0.00
2022-11-15T04:34:53.595Z,0.00
2022-11-15T04:35:53.699Z,0.00
2022-11-15T04:36:53.955Z,0.00
2022-11-15T04:37:54.138Z,0.00
2022-11-15T04:38:54.240Z,0.00
2022-11-15T04:39:54.465Z,0.00
2022-11-15T04:40:54.570Z,0.00
2022-11-15T04:41:54.699Z,0.00
2022-11-15T04:42:57.208Z,0.00
2022-11-15T04:43:55.976Z,0.00
2022-11-15T04:44:55.187Z,0.00
2022-11-15T04:45:55.295Z,0.00
2022-11-15T04:46:55.556Z,0.00
2022-11-15T04:47:55.666Z,0.00
2022-11-15T04:48:59.026Z,0.00
2022-11-15T04:49:55.929Z,0.00
2022-11-15T04:50:56.032Z,0.00
2022-11-15T04:51:56.180Z,0.00
2022-11-15T04:52:56.286Z,0.00
2022-11-15T04:53:56.522Z,0.00
2022-11-15T04:54:56.639Z,0.00
2022-11-15T04:55:56.756Z,0.00
2022-11-15T04:56:56.869Z,0.00
2022-11-15T04:57:56.979Z,0.00
2022-11-15T04:58:57.119Z,0.00
2022-11-15T04:59:57.217Z,0.00
2022-11-15T05:00:57.446Z,0.00
2022-11-15T05:01:57.545Z,0.00
2022-11-15T05:02:57.719Z,0.00
2022-11-15T05:03:57.906Z,0.00
2022-11-15T05:04:58.131Z,0.00
2022-11-15T05:05:58.305Z,0.00
2022-11-15T05:06:58.520Z,0.00
2022-11-15T05:07:58.635Z,0.00
2022-11-15T05:08:58.838Z,0.00
2022-11-15T05:09:59.086Z,0.00
2022-11-15T05:10:59.299Z,0.00
2022-11-15T05:11:59.412Z,0.00
2022-11-15T05:12:59.533Z,0.00
2022-11-15T05:13:59.667Z,0.00
2022-11-15T05:14:59.778Z,0.00
2022-11-15T05:15:59.908Z,0.00
2022-11-15T05:17:00.028Z,0.00
2022-11-15T05:18:00.233Z,0.00
2022-11-15T05:19:00.395Z,0.00
2022-11-15T05:20:00.502Z,0.00
2022-11-15T05:21:00.633Z,0.00
2022-11-15T05:22:00.762Z,0.00
2022-11-15T05:23:00.881Z,0.00
2022-11-15T05:24:01.001Z,0.00
2022-11-15T05:25:01.121Z,0.00
2022-11-15T05:26:05.055Z,0.00
2022-11-15T05:27:02.437Z,0.00
2022-11-15T05:28:01.865Z,0.00
2022-11-15T05:29:01.743Z,0.00
2022-11-15T05:30:01.868Z,0.00
2022-11-15T05:31:02.189Z,0.00
2022-11-15T05:32:02.199Z,0.00
2022-11-15T05:33:02.334Z,0.00
2022-11-15T05:34:02.456Z,0.00
2022-11-15T05:35:02.579Z,0.00
2022-11-15T05:36:02.706Z,0.00
2022-11-15T05:37:02.853Z,0.00
2022-11-15T05:38:03.007Z,0.00
2022-11-15T05:39:03.147Z,0.00
2022-11-15T05:40:03.350Z,0.00
2022-11-15T05:41:03.681Z,0.00
2022-11-15T05:42:03.623Z,0.00
2022-11-15T05:43:03.778Z,0.00
2022-11-15T05:44:03.915Z,0.00
2022-11-15T05:45:04.076Z,0.00
2022-11-15T05:46:04.246Z,0.00
2022-11-15T05:47:04.399Z,0.00
2022-11-15T05:48:04.533Z,0.00
2022-11-15T05:49:04.727Z,0.00
2022-11-15T05:50:05.004Z,4.00
2022-11-15T05:51:05.110Z,0.00
2022-11-15T05:52:05.302Z,0.00
2022-11-15T05:53:05.637Z,0.00
2022-11-15T05:54:05.685Z,4.00
2022-11-15T05:55:05.881Z,0.00
2022-11-15T05:56:06.124Z,4.00
2022-11-15T05:57:06.206Z,4.00
2022-11-15T05:58:06.411Z,8.00
2022-11-15T05:59:06.599Z,4.00
2022-11-15T06:00:06.818Z,8.00
2022-11-15T06:01:06.919Z,8.00
2022-11-15T06:02:07.186Z,8.00
2022-11-15T06:03:07.278Z,12.00
2022-11-15T06:04:07.462Z,12.00
2022-11-15T06:05:07.653Z,16.00
2022-11-15T06:06:11.113Z,16.00
2022-11-15T06:07:09.071Z,20.00
2022-11-15T06:08:08.142Z,24.00
2022-11-15T06:09:08.337Z,24.00
2022-11-15T06:10:08.544Z,32.00
2022-11-15T06:11:08.744Z,36.00
2022-11-15T06:12:08.939Z,40.00
2022-11-15T06:13:09.151Z,44.00
2022-11-15T06:14:09.312Z,52.00
2022-11-15T06:15:10.338Z,60.00
2022-11-15T06:16:09.619Z,64.00
2022-11-15T06:17:11.480Z,72.00
2022-11-15T06:18:09.857Z,84.00
2022-11-15T06:19:10.014Z,92.00
2022-11-15T06:20:10.207Z,104.00
2022-11-15T06:21:10.354Z,116.00
2022-11-15T06:22:10.528Z,128.00
2022-11-15T06:23:10.714Z,140.00
2022-11-15T06:24:10.859Z,152.00
2022-11-15T06:25:11.028Z,164.00
2022-11-15T06:26:11.173Z,180.00
2022-11-15T06:27:11.323Z,196.00
2022-11-15T06:28:11.459Z,212.00
2022-11-15T06:29:11.625Z,228.00
2022-11-15T06:30:11.768Z,248.00
2022-11-15T06:31:11.914Z,264.00
2022-11-15T06:32:12.058Z,284.00
2022-11-15T06:33:12.216Z,300.00
2022-11-15T06:34:12.361Z,324.00
2022-11-15T06:35:12.557Z,344.00
2022-11-15T06:36:17.289Z,368.00
2022-11-15T06:37:13.911Z,388.00
2022-11-15T06:38:13.047Z,416.00
2022-11-15T06:39:13.203Z,440.00
2022-11-15T06:40:13.371Z,464.00
2022-11-15T06:41:13.612Z,492.00
2022-11-15T06:42:13.655Z,520.00
2022-11-15T06:43:13.807Z,544.00
2022-11-15T06:44:13.973Z,576.00
2022-11-15T06:45:14.168Z,604.00
2022-11-15T06:46:14.380Z,636.00
2022-11-15T06:47:14.522Z,664.00
2022-11-15T06:48:14.677Z,700.00
2022-11-15T06:49:14.852Z,736.00
2022-11-15T06:50:15.015Z,772.00
2022-11-15T06:51:15.165Z,804.00
2022-11-15T06:52:15.319Z,840.00
2022-11-15T06:53:15.464Z,876.00
2022-11-15T06:54:15.687Z,912.00
2022-11-15T06:55:15.734Z,952.00
2022-11-15T06:56:15.879Z,988.00
2022-11-15T06:57:16.042Z,1028.00
2022-11-15T06:58:16.182Z,1068.00
2022-11-15T06:59:16.323Z,1108.00
2022-11-15T07:00:18.809Z,1148.00
2022-11-15T07:01:16.666Z,1188.00
2022-11-15T07:02:16.825Z,1228.00
2022-11-15T07:03:16.968Z,1272.00
2022-11-15T07:04:17.183Z,1316.00
2022-11-15T07:05:18.803Z,1364.00
2022-11-15T07:06:17.485Z,1404.00
2022-11-15T07:07:17.710Z,1448.00
2022-11-15T07:08:17.709Z,1500.00
2022-11-15T07:09:17.868Z,1544.00
2022-11-15T07:10:18.033Z,1588.00
2022-11-15T07:11:18.150Z,1644.00
2022-11-15T07:12:18.271Z,1688.00
2022-11-15T07:13:18.407Z,1736.00
2022-11-15T07:14:18.541Z,1784.00
2022-11-15T07:15:18.680Z,1832.00
2022-11-15T07:16:18.808Z,1884.00
2022-11-15T07:17:18.924Z,1956.00
2022-11-15T07:18:19.038Z,2064.00
2022-11-15T07:19:19.168Z,2252.00
2022-11-15T07:20:19.303Z,2388.00
2022-11-15T07:21:22.354Z,2516.00
2022-11-15T07:22:20.607Z,2592.00
2022-11-15T07:23:19.724Z,2684.00
2022-11-15T07:24:19.854Z,2828.00
2022-11-15T07:25:19.966Z,2928.00
2022-11-15T07:26:20.076Z,2916.00
2022-11-15T07:27:20.214Z,2888.00
2022-11-15T07:28:20.406Z,3120.00
2022-11-15T07:29:20.571Z,3332.00
2022-11-15T07:30:20.777Z,3344.00
2022-11-15T07:31:20.845Z,3236.00
2022-11-15T07:32:21.015Z,3280.00
2022-11-15T07:33:21.191Z,3668.00
2022-11-15T07:34:22.335Z,3924.00
2022-11-15T07:35:21.544Z,3996.00
2022-11-15T07:36:21.594Z,4108.00
2022-11-15T07:37:21.768Z,4228.00
2022-11-15T07:38:21.921Z,4344.00
2022-11-15T07:39:22.087Z,4432.00
2022-11-15T07:40:22.234Z,4504.00
2022-11-15T07:41:22.378Z,4592.00
2022-11-15T07:42:22.591Z,4724.00
2022-11-15T07:43:22.678Z,4812.00
2022-11-15T07:44:22.818Z,4860.00
2022-11-15T07:45:22.964Z,5012.00
2022-11-15T07:46:23.126Z,5140.00
2022-11-15T07:47:23.258Z,5232.00
2022-11-15T07:48:23.390Z,5388.00
2022-11-15T07:49:23.582Z,5548.00
2022-11-15T07:50:23.832Z,5704.00
2022-11-15T07:51:23.742Z,5952.00
2022-11-15T07:52:23.872Z,6156.00
2022-11-15T07:53:24.020Z,6400.00
2022-11-15T07:54:24.151Z,6588.00
2022-11-15T07:55:24.264Z,6656.00
2022-11-15T07:56:24.381Z,6768.00
2022-11-15T07:57:24.499Z,6996.00
2022-11-15T07:58:24.603Z,7208.00
2022-11-15T07:59:24.711Z,7280.00
2022-11-15T08:00:24.835Z,7560.00
2022-11-15T08:01:24.990Z,7892.00
2022-11-15T08:02:30.123Z,8128.00
2022-11-15T08:03:26.149Z,8292.00
2022-11-15T08:04:25.261Z,8384.00
2022-11-15T08:05:25.388Z,8324.00
2022-11-15T08:06:25.500Z,8200.00
2022-11-15T08:07:25.725Z,8084.00
2022-11-15T08:08:25.661Z,8244.00
2022-11-15T08:09:25.775Z,8688.00
2022-11-15T08:10:25.821Z,9140.00
2022-11-15T08:11:25.821Z,9352.00
2022-11-15T08:12:25.945Z,9496.00
2022-11-15T08:13:26.020Z,9704.00
2022-11-15T08:14:26.118Z,9884.00
2022-11-15T08:15:26.229Z,9980.00
2022-11-15T08:16:26.324Z,10224.00
2022-11-15T08:17:26.423Z,10488.00
2022-11-15T08:18:26.511Z,10660.00
2022-11-15T08:19:26.612Z,10500.00
2022-11-15T08:20:26.709Z,10532.00
2022-11-15T08:21:26.852Z,10808.00
2022-11-15T08:22:26.876Z,10952.00
2022-11-15T08:23:26.957Z,11272.00
2022-11-15T08:24:27.020Z,11648.00
2022-11-15T08:25:27.108Z,11848.00
2022-11-15T08:26:27.181Z,12104.00
2022-11-15T08:27:27.306Z,12608.00
2022-11-15T08:28:27.360Z,13088.00
2022-11-15T08:29:27.452Z,13216.00
2022-11-15T08:30:27.579Z,13280.00
2022-11-15T08:31:27.656Z,13536.00
2022-11-15T08:32:27.735Z,13696.00
2022-11-15T08:33:27.874Z,13920.00
2022-11-15T08:34:27.867Z,14208.00
2022-11-15T08:35:29.393Z,14336.00
2022-11-15T08:36:32.110Z,14144.00
2022-11-15T08:37:29.030Z,14272.00
2022-11-15T08:38:28.104Z,14720.00
2022-11-15T08:39:28.167Z,15040.00
2022-11-15T08:40:28.250Z,15072.00
2022-11-15T08:41:28.334Z,14944.00
2022-11-15T08:42:28.405Z,15168.00
2022-11-15T08:43:28.917Z,15424.00
2022-11-15T08:44:28.559Z,16160.00
2022-11-15T08:45:28.625Z,16480.00
2022-11-15T08:46:28.681Z,16416.00
2022-11-15T08:47:28.761Z,16608.00
2022-11-15T08:48:29.058Z,16672.00
2022-11-15T08:49:28.866Z,16864.00
2022-11-15T08:50:28.951Z,17472.00
2022-11-15T08:51:29.048Z,18144.00
2022-11-15T08:52:29.115Z,18592.00
2022-11-15T08:53:29.391Z,18688.00
2022-11-15T08:54:29.207Z,18880.00
2022-11-15T08:55:29.280Z,18976.00
2022-11-15T08:56:29.336Z,19232.00
2022-11-15T08:57:29.415Z,19616.00
2022-11-15T08:58:29.765Z,19776.00
2022-11-15T08:59:29.471Z,19872.00
2022-11-15T09:00:29.534Z,20256.00
2022-11-15T09:01:29.644Z,20192.00
2022-11-15T09:02:29.573Z,20032.00
2022-11-15T09:03:29.626Z,19904.00
2022-11-15T09:04:29.691Z,20032.00
2022-11-15T09:05:29.744Z,20480.00
2022-11-15T09:06:29.784Z,20736.00
2022-11-15T09:07:29.923Z,21088.00
2022-11-15T09:08:52.199Z,21088.00
2022-11-15T09:10:42.955Z,21120.00
2022-11-15T09:11:43.112Z,21088.00
2022-11-15T09:12:43.286Z,21856.00
2022-11-15T09:13:43.430Z,22720.00
2022-11-15T09:14:43.590Z,22848.00
2022-11-15T09:15:43.756Z,22784.00
2022-11-15T09:16:43.922Z,22432.00
2022-11-15T09:17:44.065Z,22144.00
2022-11-15T09:18:44.225Z,21888.00
2022-11-15T09:19:44.362Z,21696.00
2022-11-15T09:20:44.536Z,21760.00
2022-11-15T09:21:44.682Z,21760.00
2022-11-15T09:22:44.833Z,21792.00
2022-11-15T09:23:44.975Z,21920.00
2022-11-15T09:24:45.132Z,21952.00
2022-11-15T09:25:45.291Z,21824.00
2022-11-15T09:26:45.445Z,21920.00
2022-11-15T09:27:45.592Z,22080.00
2022-11-15T09:28:45.747Z,22976.00
2022-11-15T09:29:45.900Z,23552.00
2022-11-15T09:30:46.069Z,23904.00
2022-11-15T09:31:46.212Z,24064.00
2022-11-15T09:32:46.362Z,24096.00
2022-11-15T09:33:46.531Z,24224.00
2022-11-15T09:34:46.683Z,23872.00
2022-11-15T09:35:46.865Z,23648.00
2022-11-15T09:36:46.960Z,23712.00
2022-11-15T09:37:49.125Z,23488.00
2022-11-15T09:38:48.209Z,23872.00
2022-11-15T09:39:47.362Z,24640.00
2022-11-15T09:40:47.547Z,24960.00
2022-11-15T09:41:47.703Z,24928.00
2022-11-15T09:42:47.855Z,24704.00
2022-11-15T09:43:48.003Z,24128.00
2022-11-15T09:44:48.150Z,24288.00
2022-11-15T09:45:48.312Z,24704.00
2022-11-15T09:46:48.461Z,25184.00
2022-11-15T09:47:48.613Z,24928.00
2022-11-15T09:48:48.755Z,24992.00
2022-11-15T09:49:51.644Z,25312.00
2022-11-15T09:50:50.062Z,25536.00
2022-11-15T09:51:49.237Z,25696.00
2022-11-15T09:52:49.391Z,25984.00
2022-11-15T09:54:53.770Z,26688.00
2022-11-15T09:55:49.721Z,26848.00
2022-11-15T09:56:49.886Z,26688.00
2022-11-15T09:57:50.061Z,26688.00
2022-11-15T09:58:50.211Z,26848.00
2022-11-15T09:59:50.363Z,26816.00
2022-11-15T10:00:50.595Z,26848.00
2022-11-15T10:01:50.736Z,26944.00
2022-11-15T10:02:50.793Z,27104.00
2022-11-15T10:03:50.964Z,26944.00
2022-11-15T10:04:51.112Z,27264.00
2022-11-15T10:05:51.327Z,27264.00
2022-11-15T10:06:51.429Z,26784.00
2022-11-15T10:07:51.577Z,26848.00
2022-11-15T10:08:51.745Z,27424.00
2022-11-15T10:09:51.899Z,28000.00
2022-11-15T10:11:05.047Z,28544.00
2022-11-15T10:11:53.202Z,28032.00
2022-11-15T10:12:52.330Z,27648.00
2022-11-15T10:13:52.467Z,27040.00
2022-11-15T10:14:54.583Z,26880.00
2022-11-15T10:15:52.712Z,26976.00
2022-11-15T10:16:52.852Z,27136.00
2022-11-15T10:17:52.979Z,27008.00
2022-11-15T10:18:53.113Z,27200.00
2022-11-15T10:19:53.256Z,27296.00
2022-11-15T10:20:53.407Z,27200.00
2022-11-15T10:21:53.540Z,27232.00
2022-11-15T10:22:53.722Z,27008.00
2022-11-15T10:23:53.844Z,27392.00
2022-11-15T10:24:53.982Z,28192.00
2022-11-15T10:25:54.147Z,27808.00
2022-11-15T10:26:54.248Z,27552.00
2022-11-15T10:27:54.395Z,27680.00
2022-11-15T10:28:54.543Z,27712.00
2022-11-15T10:29:54.683Z,27616.00
2022-11-15T10:30:54.817Z,27552.00
2022-11-15T10:31:54.944Z,28288.00
2022-11-15T10:32:55.095Z,28032.00
2022-11-15T10:33:55.214Z,28160.00
2022-11-15T10:34:55.344Z,27840.00
2022-11-15T10:35:55.471Z,28096.00
2022-11-15T10:36:55.547Z,28736.00
2022-11-15T10:37:55.684Z,28704.00
2022-11-15T10:38:55.811Z,28288.00
2022-11-15T10:39:55.935Z,28736.00
2022-11-15T10:40:56.063Z,28736.00
2022-11-15T10:41:56.187Z,27776.00
2022-11-15T10:42:56.321Z,26688.00
2022-11-15T10:43:56.446Z,25728.00
2022-11-15T10:44:56.568Z,25728.00
2022-11-15T10:45:56.691Z,27008.00
2022-11-15T10:46:56.802Z,27520.00
2022-11-15T10:47:56.929Z,27744.00
2022-11-15T10:48:57.066Z,27776.00
2022-11-15T10:49:57.182Z,27936.00
2022-11-15T10:50:57.309Z,28128.00
2022-11-15T10:51:57.430Z,28544.00
2022-11-15T10:52:57.565Z,28832.00
2022-11-15T10:53:57.674Z,28576.00
2022-11-15T10:54:57.819Z,28128.00
2022-11-15T10:55:57.922Z,27968.00
2022-11-15T10:56:58.060Z,26848.00
2022-11-15T10:57:58.194Z,26880.00
2022-11-15T10:58:58.325Z,27200.00
2022-11-15T10:59:58.429Z,27552.00
2022-11-15T11:00:58.606Z,28736.00
2022-11-15T11:01:58.624Z,28832.00
2022-11-15T11:02:58.760Z,28416.00
2022-11-15T11:03:58.876Z,27584.00
2022-11-15T11:04:58.993Z,27712.00
2022-11-15T11:05:59.130Z,28096.00
2022-11-15T11:06:59.311Z,27808.00
2022-11-15T11:07:59.321Z,27360.00
2022-11-15T11:08:59.433Z,27072.00
2022-11-15T11:09:59.557Z,26816.00
2022-11-15T11:11:03.014Z,26592.00
2022-11-15T11:11:59.736Z,26432.00
2022-11-15T11:12:59.872Z,26496.00
2022-11-15T11:13:59.999Z,25728.00
2022-11-15T11:15:00.111Z,25024.00
2022-11-15T11:16:00.224Z,24480.00
2022-11-15T11:17:00.340Z,24480.00
2022-11-15T11:18:00.467Z,24608.00
2022-11-15T11:19:00.590Z,24480.00
2022-11-15T11:20:00.707Z,24800.00
2022-11-15T11:21:00.834Z,24576.00
2022-11-15T11:22:00.973Z,24288.00
2022-11-15T11:23:01.097Z,23744.00
2022-11-15T11:24:01.210Z,23040.00
2022-11-15T11:25:01.327Z,22528.00
2022-11-15T11:26:01.466Z,22624.00
2022-11-15T11:27:01.582Z,22912.00
2022-11-15T11:28:01.722Z,23680.00
2022-11-15T11:29:01.859Z,24096.00
2022-11-15T11:30:01.969Z,24896.00
2022-11-15T11:31:02.113Z,24736.00
2022-11-15T11:32:02.229Z,24960.00
2022-11-15T11:33:02.357Z,24288.00
2022-11-15T11:34:02.474Z,24256.00
2022-11-15T11:35:02.588Z,24320.00
2022-11-15T11:36:02.708Z,23840.00
2022-11-15T11:37:02.827Z,23872.00
2022-11-15T11:38:02.994Z,23648.00
2022-11-15T11:39:03.036Z,23328.00
2022-11-15T11:40:09.161Z,23136.00
2022-11-15T11:41:04.236Z,23104.00
2022-11-15T11:42:03.346Z,23616.00
2022-11-15T11:43:03.490Z,23840.00
2022-11-15T11:44:03.603Z,24224.00
2022-11-15T11:45:03.712Z,24384.00
2022-11-15T11:46:03.847Z,24288.00
2022-11-15T11:47:03.953Z,23328.00
2022-11-15T11:48:04.084Z,22240.00
2022-11-15T11:49:04.205Z,21344.00
2022-11-15T11:50:04.353Z,20864.00
2022-11-15T11:51:04.469Z,20576.00
2022-11-15T11:52:04.586Z,20480.00
2022-11-15T11:53:04.703Z,20000.00
2022-11-15T11:54:04.829Z,20224.00
2022-11-15T11:55:05.036Z,20896.00
2022-11-15T11:56:05.018Z,21376.00
2022-11-15T11:57:05.137Z,21568.00
2022-11-15T11:58:05.290Z,21120.00
2022-11-15T11:59:05.409Z,21344.00
2022-11-15T12:00:05.527Z,21504.00
2022-11-15T12:01:11.415Z,21696.00
2022-11-15T12:02:06.767Z,21216.00
2022-11-15T12:03:05.989Z,20800.00
2022-11-15T12:04:06.003Z,20736.00
2022-11-15T12:05:06.122Z,20928.00
2022-11-15T12:06:06.253Z,20768.00
2022-11-15T12:07:06.422Z,20608.00
2022-11-15T12:08:06.541Z,20032.00
2022-11-15T12:09:06.646Z,19264.00
2022-11-15T12:10:06.770Z,18944.00
2022-11-15T12:11:06.880Z,19136.00
2022-11-15T12:12:07.001Z,19200.00
2022-11-15T12:13:07.126Z,19072.00
2022-11-15T12:14:07.252Z,19552.00
2022-11-15T12:15:07.378Z,19616.00
2022-11-15T12:16:10.300Z,19904.00
2022-11-15T12:17:07.580Z,19872.00
2022-11-15T12:18:07.713Z,19936.00
2022-11-15T12:19:07.827Z,19392.00
2022-11-15T12:20:07.947Z,18784.00
2022-11-15T12:21:08.097Z,18688.00
2022-11-15T12:22:08.248Z,18528.00
2022-11-15T12:23:08.372Z,18432.00
2022-11-15T12:24:08.551Z,18592.00
2022-11-15T12:25:08.561Z,18208.00
2022-11-15T12:26:08.688Z,17920.00
2022-11-15T12:27:08.782Z,17792.00
2022-11-15T12:28:08.901Z,17536.00
2022-11-15T12:29:09.407Z,17344.00
2022-11-15T12:30:09.119Z,17376.00
2022-11-15T12:31:09.290Z,17056.00
2022-11-15T12:32:09.301Z,16480.00
2022-11-15T12:33:09.437Z,16096.00
2022-11-15T12:34:09.570Z,15968.00
2022-11-15T12:35:09.714Z,15520.00
2022-11-15T12:36:09.811Z,15424.00
2022-11-15T12:37:09.928Z,15296.00